Bookmark and Share
Track history (hours):
 

Yuedian 58

Last reported at 2014-Apr-09 21:33 UTC. Time now 2014-Apr-24 13:38 UTC.
Position N 01°14' E 103°58'.
Warning: this ship's position is 14 days out of date.

Length 190 m; draft 7.2 m.

Type: Cargo ship. MMSI: 414008000.

NotesDate/timePositionNaut miles runAvg speedWind from/ knotsBaromVisibWave heightAir tempDewpointWater temp
2014-Apr-09 21:33N 01°14' E 103°58'9 9.0
2014-Apr-09 20:33N 01°13' E 103°49'1 0.5
2014-Apr-09 19:17N 01°13' E 103°49'0 0.0
2014-Apr-09 18:17N 01°13' E 103°49'0 0.0
2014-Apr-09 17:14N 01°13' E 103°49'0 0.0
2014-Apr-09 16:32N 01°13' E 103°49'0 0.0
2014-Apr-09 15:29N 01°13' E 103°49'0 0.0
2014-Apr-09 13:08N 01°13' E 103°49'0 0.2
2014-Apr-09 12:32N 01°13' E 103°49'0 0.5
2014-Apr-09 11:33N 01°13' E 103°49'8 8.1
2014-Apr-09 10:33N 01°13' E 103°40'3 3.4
2014-Apr-09 09:33N 01°15' E 103°38'0 0.0
2014-Apr-09 08:33N 01°15' E 103°38'0 0.0
2014-Apr-09 07:33N 01°15' E 103°38'0 0.0
2014-Apr-09 06:27N 01°15' E 103°38'0 0.0
2014-Apr-09 05:33N 01°15' E 103°38'0 0.0
2014-Apr-09 04:33N 01°15' E 103°38'0 0.0
2014-Apr-09 03:30N 01°15' E 103°38'0 0.0
2014-Apr-09 02:30N 01°15' E 103°38'0 0.0
2014-Apr-09 01:33N 01°15' E 103°38'0 0.0
2014-Apr-09 00:33N 01°15' E 103°38'0 0.0
2014-Apr-08 23:30N 01°15' E 103°38'0 0.0
2014-Apr-08 22:33N 01°15' E 103°38'0 0.0
2014-Apr-08 21:30N 01°15' E 103°38'0 0.0
2014-Apr-08 20:33N 01°15' E 103°38'0 0.0
2014-Apr-08 19:33N 01°15' E 103°38'0 0.0
2014-Apr-08 18:33N 01°15' E 103°38'0 0.0
2014-Apr-08 17:30N 01°15' E 103°38'0 0.0
2014-Apr-08 16:33N 01°15' E 103°38'0 0.0
2014-Apr-08 15:33N 01°15' E 103°38'0 0.0
2014-Apr-08 14:33N 01°15' E 103°38'0 0.0
2014-Apr-08 13:27N 01°15' E 103°38'0 0.0
2014-Apr-08 12:33N 01°15' E 103°38'0 0.0
2014-Apr-08 11:24N 01°15' E 103°38'0 0.0
2014-Apr-08 10:33N 01°15' E 103°38'0 0.0
2014-Apr-08 09:33N 01°15' E 103°38'0 0.0
2014-Apr-08 08:33N 01°15' E 103°38'0 0.0
2014-Apr-08 07:21N 01°15' E 103°38'0 0.0
2014-Apr-08 06:33N 01°15' E 103°38'0 0.0
2014-Apr-08 05:33N 01°15' E 103°38'0 0.0
2014-Apr-08 04:30N 01°15' E 103°38'0 0.0
2014-Apr-08 03:33N 01°15' E 103°38'0 0.0
2014-Apr-08 02:30N 01°15' E 103°38'0 0.0
2014-Apr-08 01:27N 01°15' E 103°38'0 0.0
2014-Apr-08 00:30N 01°15' E 103°38'0 0.0
2014-Apr-07 23:33N 01°15' E 103°38'0 0.0
2014-Apr-07 22:33N 01°15' E 103°38'0 0.0
2014-Apr-07 21:33N 01°15' E 103°38'0 0.0
2014-Apr-07 20:33N 01°15' E 103°38'0 0.0
2014-Apr-07 19:30N 01°15' E 103°38'0 0.0
2014-Apr-07 17:33N 01°15' E 103°38'0 0.0
2014-Apr-07 16:33N 01°15' E 103°38'0 0.0
2014-Apr-07 15:30N 01°15' E 103°38'0 0.0
2014-Apr-07 14:33N 01°15' E 103°38'0 0.0
2014-Apr-07 13:33N 01°15' E 103°38'0 0.0
2014-Apr-07 12:33N 01°15' E 103°38'0 0.0
2014-Apr-07 11:30N 01°15' E 103°38'0 0.0
2014-Apr-07 10:33N 01°15' E 103°38'0 0.0
2014-Apr-07 09:33N 01°15' E 103°38'0 0.0
2014-Apr-07 08:27N 01°15' E 103°38'0 0.0
2014-Apr-07 07:33N 01°15' E 103°38'0 0.0
2014-Apr-07 06:33N 01°15' E 103°38'0 0.0
2014-Apr-07 05:33N 01°15' E 103°38'0 0.0
2014-Apr-07 04:33N 01°15' E 103°38'0 0.0
2014-Apr-07 03:33N 01°15' E 103°38'0 0.0
2014-Apr-07 02:33N 01°15' E 103°38'0 0.0
2014-Apr-07 01:33N 01°15' E 103°38'0 0.0
2014-Apr-07 00:30N 01°15' E 103°38'0 0.0
2014-Apr-06 23:33N 01°15' E 103°38'0 0.0
2014-Apr-06 22:33N 01°15' E 103°38'0 0.0
2014-Apr-06 21:33N 01°15' E 103°38'0 0.0
2014-Apr-06 20:30N 01°15' E 103°38'0 0.0
2014-Apr-06 19:33N 01°15' E 103°38'0 0.0
2014-Apr-06 18:33N 01°15' E 103°38'0 0.0
2014-Apr-06 17:33N 01°15' E 103°38'0 0.0
2014-Apr-06 16:33N 01°15' E 103°38'0 0.0
2014-Apr-06 15:33N 01°15' E 103°38'0 0.0
2014-Apr-06 14:33N 01°15' E 103°38'0 0.0
2014-Apr-06 13:33N 01°15' E 103°38'0 0.0
2014-Apr-06 12:30N 01°15' E 103°38'0 0.0
2014-Apr-06 11:33N 01°15' E 103°38'0 0.0
2014-Apr-06 10:15N 01°15' E 103°38'0 0.0
2014-Apr-06 09:33N 01°15' E 103°38'0 0.0
2014-Apr-06 08:27N 01°15' E 103°38'0 0.0
2014-Apr-06 07:30N 01°15' E 103°38'0 0.0
2014-Apr-06 06:27N 01°15' E 103°38'0 0.0
2014-Apr-06 05:33N 01°15' E 103°38'0 0.0
2014-Apr-06 04:27N 01°15' E 103°38'0 0.0
2014-Apr-06 03:33N 01°15' E 103°38'0 0.0
2014-Apr-06 02:21N 01°15' E 103°38'0 0.0
2014-Apr-06 01:33N 01°15' E 103°38'0 0.0
2014-Apr-06 00:33N 01°15' E 103°38'0 0.0
2014-Apr-05 23:33N 01°15' E 103°38'0 0.0
2014-Apr-05 22:33N 01°15' E 103°38'0 0.0
2014-Apr-05 21:33N 01°15' E 103°38'0 0.0
2014-Apr-05 20:33N 01°15' E 103°38'0 0.0
2014-Apr-05 19:30N 01°15' E 103°38'0 0.0
2014-Apr-05 18:33N 01°15' E 103°38'0 0.0
2014-Apr-05 17:33N 01°15' E 103°38'0 0.0
2014-Apr-05 16:33N 01°15' E 103°38'0 0.0
2014-Apr-05 15:33N 01°15' E 103°38'0 0.0
2014-Apr-05 14:30N 01°15' E 103°38'0 0.0
2014-Apr-05 13:30N 01°15' E 103°38'0 0.0
2014-Apr-05 12:30N 01°15' E 103°38'0 0.0
2014-Apr-05 11:33N 01°15' E 103°38'0 0.0
2014-Apr-05 10:30N 01°15' E 103°38'0 0.0
2014-Apr-05 09:27N 01°15' E 103°38'0 0.0
2014-Apr-05 08:21N 01°15' E 103°38'0 0.0
2014-Apr-05 07:33N 01°15' E 103°38'0 0.0
2014-Apr-05 06:33N 01°15' E 103°38'0 0.0
2014-Apr-05 05:33N 01°15' E 103°38'0 0.5
2014-Apr-05 04:33N 01°15' E 103°39'3 3.2
2014-Apr-05 03:33N 01°12' E 103°39'8 8.0
2014-Apr-05 02:33N 01°10' E 103°47'  

Dump ship's entire track history

sailing weather and tide predictions

Yuedian 58 — BYFE — position and weather